Strona główna
Zdjęcia satelitarne 15-dni prognozyKlimatMeteorologia morska Cyklony Błyskawica LotniskoFAQ Gazetka O
Pogoda : Europa Afryka Ameryka Północna Ameryka Południowa Azja Australia-Oceania Inny
Języki Kontakt

Katowice, Polska

Pyrzowice

Szerokość geograficzna: 50-28-27N, Długość geograficzna: 019-04-48E, wysokość: 284 m


METAR: EPKT 251530Z VRB01KT 8000 BKN026 08/05 Q1024
TAF: EPKT 251430Z 2515/2524 16004KT 9999 SCT023 BECMG 2516/2519 4000 BR BKN014

czas: 17:56 (15:56 UTC)

Aktualna obserwacja pogody

Raport powstał 26 minut temu, godzina 15:30 UTC
Wiatr 1 kt z kierunków zmiennych
Temperatura 8°C
Wilgotność 81%
Ciśnienie 1024 hPa
Widzialność: 8000 m
Przerywane chmury na wysokości 2600 ft

Jednostka miary

Prognoza

Raport powstał 1 godzina i 26 minut temu, godzina 14:30 UTC
Prognoza ważna od 25 godzina 15 UTC do 25 godzina 24 UTC
Wiatr 4 kt od południowo-południowy wschód
Widzialność 10 km lub więcej
Rozproszone chmury na wysokości 2300 ft
Stopniowe zmiany
od 25 godzina 16 UTC do 25 godzina 19 UTC
Widzialność: 4000 m
Przerywane chmury na wysokości 1400 ft
zamglenie
Informacje na tej stronie internetowej podlegają klauzuli o wyłączeniu odpowiedzialności
Pogoda : Europa Afryka Ameryka Północna Ameryka Południowa Azja Australia-Oceania Inny
Zdjęcia satelitarne 15-dni prognozyKlimatMeteorologia morska Cyklony Błyskawica LotniskoFAQ Języki Kontakt Gazetka O